KOKK/OKK METAR and TAF weather

Enter ICAO airport designator
Station Type Date Time Source
KOKK METAR 2022/06/28 08:56 UTC NOAA

KOKK 280856Z AUTO 00000KT 10SM CLR 11/11 A3026 RMK AO2 SLP243 T01060106 58000


Station Type Date Time Source
KOKK Decoded METAR 2022/06/28 08:56 UTC NOAA

Kokomo, Kokomo Municipal Airport, IN, United States (KOKK) 40-32N 086-04W
Jun 28, 2022 - 04:56 AM EDT / 2022.06.28 0856 UTC
Wind: Calm:0
Visibility: 10 mile(s):0
Sky conditions: clear
Temperature: 51.1 F (10.6 C)
Dew Point: 51.1 F (10.6 C)
Relative Humidity: 100%
Pressure (altimeter): 30.26 in. Hg (1024 hPa)
Pressure tendency: 0.00 inches (0.0 hPa) lower than three hours ago
ob: KOKK 280856Z AUTO 00000KT 10SM CLR 11/11 A3026 RMK AO2 SLP243 T01060106 58000
cycle: 9

Station Type Date Time Source
KOKK TAF UTC NOAA

Error!

Example: see airport list